Time;durP1;ratioP1;P1;durP2;ratioP2;P2;SDS_P1;SDS_P2;PMS_P1;PMS_P2;Temp;Humidity;BMP_temperature;BMP_pressure;BME280_temperature;BME280_humidity;BME280_pressure;Samples;Min_cycle;Max_cycle;Signal;HPM_P1;HPM_P2
2020/12/09 00:08:39;;;;;;;19.60;11.57;;;21.80;46.20;;;;;;21070753;28;20028;-16
2020/12/09 00:18:40;;;;;;;14.18;10.38;;;21.40;46.70;;;;;;21070973;28;20096;-16
2020/12/09 00:28:41;;;;;;;15.63;12.27;;;21.20;46.80;;;;;;21069022;28;20039;-16
2020/12/09 00:38:42;;;;;;;19.60;14.05;;;21.00;47.20;;;;;;21068651;28;20039;-15
2020/12/09 00:48:43;;;;;;;15.88;12.20;;;21.00;46.90;;;;;;21067879;28;20032;-16
2020/12/09 00:58:44;;;;;;;21.00;13.45;;;21.00;46.60;;;;;;21069154;28;20032;-16
2020/12/09 01:08:44;;;;;;;18.60;14.18;;;20.80;46.10;;;;;;21067728;28;20743;-15
2020/12/09 01:18:47;;;;;;;19.17;14.13;;;20.70;46.20;;;;;;21067402;28;20030;-15
2020/12/09 01:28:47;;;;;;;19.38;14.18;;;20.60;46.50;;;;;;21066043;28;20012;-16
2020/12/09 01:38:49;;;;;;;16.42;13.85;;;20.50;46.10;;;;;;21065327;28;20028;-16
2020/12/09 01:48:49;;;;;;;17.42;14.27;;;20.30;46.20;;;;;;21046909;28;20399;-15
2020/12/09 01:58:52;;;;;;;19.67;14.65;;;20.20;46.90;;;;;;21061807;28;20119;-15
2020/12/09 02:08:52;;;;;;;21.65;15.60;;;20.10;46.80;;;;;;21072124;28;20032;-15
2020/12/09 02:18:53;;;;;;;19.80;14.65;;;20.00;47.00;;;;;;21076860;28;20031;-15
2020/12/09 02:28:54;;;;;;;20.15;15.57;;;19.90;46.70;;;;;;21078509;28;20032;-16
2020/12/09 02:38:55;;;;;;;22.20;14.77;;;19.80;46.90;;;;;;21076254;28;20036;-16
2020/12/09 02:48:57;;;;;;;18.95;13.95;;;19.80;46.80;;;;;;21075923;28;20024;-15
2020/12/09 02:58:57;;;;;;;20.35;14.52;;;19.70;46.90;;;;;;21074947;28;20538;-15
2020/12/09 03:08:58;;;;;;;18.13;14.70;;;19.60;46.90;;;;;;21075133;28;20032;-15
2020/12/09 03:18:59;;;;;;;20.55;15.52;;;19.50;47.00;;;;;;21074251;28;20082;-15
2020/12/09 03:28:59;;;;;;;22.60;15.80;;;19.50;47.10;;;;;;21072580;28;20023;-15
2020/12/09 03:39:00;;;;;;;20.80;15.38;;;19.40;47.20;;;;;;21049466;28;20070;-16
2020/12/09 03:49:01;;;;;;;24.73;15.80;;;19.30;47.00;;;;;;21070536;28;20043;-16
2020/12/09 03:59:01;;;;;;;18.38;15.75;;;19.40;46.90;;;;;;21070296;28;20032;-16
2020/12/09 04:09:04;;;;;;;20.73;14.70;;;19.20;47.30;;;;;;21070096;28;20071;-15
2020/12/09 04:19:04;;;;;;;18.98;14.90;;;19.20;47.30;;;;;;21072146;28;20057;-15
2020/12/09 04:29:05;;;;;;;18.50;14.45;;;19.10;47.70;;;;;;21071991;28;20029;-15
2020/12/09 04:39:06;;;;;;;20.85;15.68;;;19.10;47.30;;;;;;21075033;28;20531;-16
2020/12/09 04:49:19;;;;;;;19.88;14.75;;;19.00;47.40;;;;;;21078560;28;20430;-16
2020/12/09 04:59:23;;;;;;;19.85;15.38;;;19.00;47.30;;;;;;21083136;28;20032;-16
2020/12/09 05:09:27;;;;;;;20.42;15.80;;;19.10;47.50;;;;;;21063346;28;20533;-16
2020/12/09 05:19:28;;;;;;;25.73;18.27;;;19.10;47.30;;;;;;21092670;28;20024;-16
2020/12/09 05:29:28;;;;;;;19.38;15.80;;;19.50;46.50;;;;;;21097348;28;20016;-16
2020/12/09 05:39:29;;;;;;;25.10;15.23;;;20.20;45.70;;;;;;21107695;28;20047;-17
2020/12/09 05:49:32;;;;;;;30.65;16.30;;;20.90;43.80;;;;;;21119476;28;20016;-17
2020/12/09 05:59:53;;;;;;;24.90;14.52;;;21.40;43.30;;;;;;21127641;28;20031;-17
2020/12/09 06:10:14;;;;;;;27.27;16.90;;;21.50;43.40;;;;;;21113546;28;20035;-17
2020/12/09 06:20:17;;;;;;;34.25;16.40;;;22.00;42.90;;;;;;21093693;28;20059;-17
2020/12/09 06:30:25;;;;;;;35.60;16.70;;;22.40;42.30;;;;;;21089732;28;20028;-15
2020/12/09 06:40:26;;;;;;;28.13;16.13;;;22.70;41.80;;;;;;21089383;28;20361;-16
2020/12/09 06:50:30;;;;;;;24.10;15.50;;;23.10;41.10;;;;;;21094307;28;20030;-16
2020/12/09 07:00:30;;;;;;;22.90;14.20;;;23.50;40.30;;;;;;21104740;22;20071;-17
2020/12/09 07:10:32;;;;;;;17.75;12.52;;;23.90;39.90;;;;;;21085600;28;20031;-17
2020/12/09 07:20:33;;;;;;;18.92;13.13;;;24.30;39.40;;;;;;21096053;28;20028;-17
2020/12/09 07:30:34;;;;;;;17.60;12.55;;;24.60;38.90;;;;;;21085152;28;20028;-17
2020/12/09 07:40:35;;;;;;;18.80;13.10;;;24.70;38.80;;;;;;21084736;28;20030;-17
2020/12/09 07:50:37;;;;;;;16.48;11.80;;;24.80;38.70;;;;;;21076603;28;20492;-15
2020/12/09 08:00:47;;;;;;;17.50;11.32;;;24.40;39.50;;;;;;21068552;28;20404;-17
2020/12/09 08:10:49;;;;;;;18.00;12.27;;;24.10;40.00;;;;;;21056248;28;20028;-17
2020/12/09 08:20:52;;;;;;;25.90;11.60;;;24.10;40.10;;;;;;21069977;28;20016;-17
2020/12/09 08:30:53;;;;;;;18.30;10.80;;;23.70;40.90;;;;;;21064022;28;20484;-17
2020/12/09 08:40:56;;;;;;;28.55;12.02;;;23.70;41.40;;;;;;21067407;28;20028;-16
2020/12/09 08:50:56;;;;;;;47.97;12.60;;;23.50;41.90;;;;;;21070611;28;20034;-17
2020/12/09 09:00:59;;;;;;;28.77;11.45;;;23.50;42.50;;;;;;21084178;28;20039;-16
2020/12/09 09:11:00;;;;;;;23.83;11.52;;;23.50;41.90;;;;;;21081353;28;20109;-17
2020/12/09 09:21:00;;;;;;;21.17;10.23;;;23.50;42.20;;;;;;21078364;28;20032;-18
2020/12/09 09:31:01;;;;;;;18.45;11.10;;;23.50;42.00;;;;;;21106767;28;20553;-17
2020/12/09 09:41:02;;;;;;;28.17;11.57;;;23.50;42.40;;;;;;21098600;28;20034;-17
2020/12/09 09:51:02;;;;;;;29.15;11.40;;;23.50;42.40;;;;;;21083568;28;20031;-16
2020/12/09 10:01:03;;;;;;;19.77;12.43;;;23.40;42.50;;;;;;21102639;28;20110;-16
2020/12/09 10:11:04;;;;;;;18.38;11.00;;;23.50;42.20;;;;;;21071925;28;20090;-17
2020/12/09 10:21:04;;;;;;;25.08;11.43;;;23.40;42.70;;;;;;21079789;28;20094;-17
2020/12/09 10:31:05;;;;;;;24.23;11.25;;;23.50;42.90;;;;;;21079232;28;20562;-17
2020/12/09 10:41:09;;;;;;;31.25;12.25;;;23.40;42.90;;;;;;21065298;28;20445;-17
2020/12/09 10:51:09;;;;;;;25.73;11.23;;;23.50;43.10;;;;;;21078028;28;20107;-17
2020/12/09 11:01:12;;;;;;;26.23;11.27;;;23.50;43.00;;;;;;21077057;28;20449;-17
2020/12/09 11:11:13;;;;;;;36.22;14.70;;;23.40;43.30;;;;;;21074300;28;20497;-17
2020/12/09 11:21:18;;;;;;;34.22;14.60;;;23.50;45.40;;;;;;21069494;28;20024;-16
2020/12/09 11:31:20;;;;;;;37.70;13.25;;;23.30;46.10;;;;;;21071773;28;20036;-17
2020/12/09 11:41:31;;;;;;;30.85;14.00;;;23.40;46.10;;;;;;21072387;28;20491;-16
2020/12/09 11:51:31;;;;;;;30.98;13.32;;;23.30;46.60;;;;;;21032457;28;20020;-16
2020/12/09 12:01:32;;;;;;;25.50;13.48;;;23.40;46.60;;;;;;21069744;28;20550;-16
2020/12/09 12:11:33;;;;;;;32.88;13.43;;;23.30;47.10;;;;;;21050263;28;20036;-17
2020/12/09 12:21:34;;;;;;;28.13;13.73;;;23.40;47.30;;;;;;21066827;28;20036;-17
2020/12/09 12:31:34;;;;;;;27.00;13.00;;;23.20;47.70;;;;;;21068925;28;20028;-16
2020/12/09 12:41:35;;;;;;;22.20;13.10;;;23.10;48.00;;;;;;21068803;28;20027;-16
2020/12/09 12:51:35;;;;;;;21.98;12.75;;;23.10;48.20;;;;;;21059455;28;20416;-15
2020/12/09 13:01:36;;;;;;;23.30;13.60;;;23.00;48.40;;;;;;21061206;28;20153;-16
2020/12/09 13:11:36;;;;;;;24.02;13.35;;;23.00;48.70;;;;;;21067714;28;20040;-16
2020/12/09 13:21:37;;;;;;;20.70;13.10;;;22.90;49.30;;;;;;21064434;28;20032;-16
2020/12/09 13:31:38;;;;;;;26.77;12.95;;;23.00;48.70;;;;;;21060931;28;20480;-17
2020/12/09 13:41:39;;;;;;;26.02;12.50;;;23.20;48.10;;;;;;21076103;28;20122;-16
2020/12/09 13:51:39;;;;;;;35.28;12.85;;;23.10;48.90;;;;;;21081060;28;20051;-16
2020/12/09 14:01:40;;;;;;;26.67;12.82;;;23.20;48.90;;;;;;21079025;28;20036;-16
2020/12/09 14:11:40;;;;;;;19.27;11.70;;;23.10;49.50;;;;;;21078882;28;20396;-16
2020/12/09 14:21:41;;;;;;;29.52;12.52;;;23.20;49.60;;;;;;21077975;28;20024;-17
2020/12/09 14:31:42;;;;;;;24.10;13.88;;;23.00;49.30;;;;;;21058569;28;20057;-17
2020/12/09 14:41:47;;;;;;;21.60;11.47;;;23.20;49.60;;;;;;21054725;28;20072;-17
2020/12/09 14:51:48;;;;;;;22.27;13.82;;;23.20;49.90;;;;;;21073542;28;20481;-17
2020/12/09 15:01:48;;;;;;;18.05;12.27;;;23.30;50.40;;;;;;21055943;28;20035;-17
2020/12/09 15:11:49;;;;;;;20.13;12.37;;;23.30;51.00;;;;;;21069869;28;20391;-16
2020/12/09 15:21:49;;;;;;;20.05;12.23;;;23.40;51.00;;;;;;21062176;28;20040;-17
2020/12/09 15:31:50;;;;;;;20.17;12.37;;;23.20;50.90;;;;;;21073345;28;20455;-17
2020/12/09 15:41:51;;;;;;;17.30;12.43;;;23.00;51.70;;;;;;21072999;28;20450;-17
2020/12/09 15:51:51;;;;;;;23.73;12.85;;;23.10;52.00;;;;;;21071987;28;20500;-17
2020/12/09 16:01:52;;;;;;;28.60;12.77;;;22.90;52.40;;;;;;21069926;28;20098;-15
2020/12/09 16:11:52;;;;;;;28.20;14.07;;;23.00;52.50;;;;;;21069838;28;20070;-17
2020/12/09 16:21:53;;;;;;;23.33;13.60;;;22.90;52.30;;;;;;21069078;28;20426;-15
2020/12/09 16:31:53;;;;;;;22.67;15.32;;;22.90;52.60;;;;;;21068489;28;20381;-16
2020/12/09 16:41:55;;;;;;;28.17;17.63;;;22.90;52.00;;;;;;21068825;28;20024;-16
2020/12/09 16:51:56;;;;;;;33.67;20.92;;;22.70;50.70;;;;;;21076024;28;20382;-16
2020/12/09 17:01:58;;;;;;;39.50;25.88;;;22.80;49.60;;;;;;21074025;28;20036;-16
2020/12/09 17:11:58;;;;;;;38.20;24.42;;;23.20;50.80;;;;;;21066818;28;20031;-16
2020/12/09 17:21:59;;;;;;;47.53;24.90;;;23.30;51.70;;;;;;21083146;28;20458;-16
2020/12/09 17:31:59;;;;;;;102.05;56.05;;;23.30;50.40;;;;;;20969114;28;20456;-17
2020/12/09 17:42:00;;;;;;;77.68;46.42;;;23.10;50.70;;;;;;20929527;28;20028;-15
2020/12/09 17:52:01;;;;;;;71.90;42.08;;;23.20;51.40;;;;;;20928798;28;20510;-15
2020/12/09 18:02:02;;;;;;;66.85;40.25;;;23.00;52.30;;;;;;20947250;28;20064;-15
2020/12/09 18:12:06;;;;;;;61.17;38.92;;;22.80;53.00;;;;;;20981825;28;20032;-17
2020/12/09 18:22:06;;;;;;;58.65;35.08;;;22.60;53.40;;;;;;20978698;28;20553;-16
2020/12/09 18:32:07;;;;;;;59.67;35.58;;;22.60;53.50;;;;;;20933569;28;20116;-16
2020/12/09 18:42:10;;;;;;;45.95;31.70;;;22.30;54.60;;;;;;20917344;28;20029;-16
2020/12/09 18:52:11;;;;;;;54.55;30.90;;;22.10;54.70;;;;;;20943409;28;20470;-16
2020/12/09 19:02:12;;;;;;;60.10;30.80;;;22.00;55.50;;;;;;20953784;28;20452;-16
2020/12/09 19:12:12;;;;;;;97.43;34.42;;;22.00;55.60;;;;;;20970015;28;20475;-16
2020/12/09 19:22:14;;;;;;;90.78;39.05;;;22.00;56.40;;;;;;20976187;28;20100;-16
2020/12/09 19:32:14;;;;;;;76.70;42.58;;;21.70;55.90;;;;;;21109608;22;20035;-17
2020/12/09 19:42:15;;;;;;;79.28;44.97;;;21.90;55.00;;;;;;21154624;28;20030;-17
2020/12/09 19:52:15;;;;;;;65.63;36.78;;;22.20;53.60;;;;;;21155175;28;20111;-17
2020/12/09 20:02:16;;;;;;;60.45;30.85;;;22.70;51.80;;;;;;21154515;28;20081;-16
2020/12/09 20:12:17;;;;;;;47.87;27.83;;;23.30;50.30;;;;;;21153908;28;20519;-16
2020/12/09 20:22:17;;;;;;;41.80;25.40;;;23.80;49.00;;;;;;21153300;28;20481;-16
2020/12/09 20:32:18;;;;;;;34.67;22.48;;;24.20;47.90;;;;;;21200285;27;20027;-17
2020/12/09 20:42:18;;;;;;;35.88;20.75;;;24.40;47.40;;;;;;21240266;27;20483;-17
2020/12/09 20:52:19;;;;;;;38.25;21.05;;;24.10;47.80;;;;;;21261971;27;20494;-17
2020/12/09 21:02:19;;;;;;;44.40;28.55;;;23.90;48.40;;;;;;21251233;27;20055;-18
2020/12/09 21:12:20;;;;;;;40.10;26.23;;;24.00;48.60;;;;;;21258676;27;20047;-17
2020/12/09 21:22:21;;;;;;;40.78;25.23;;;23.90;49.00;;;;;;21251023;27;20016;-17
2020/12/09 21:32:21;;;;;;;30.33;21.35;;;23.70;49.20;;;;;;21250291;27;20035;-17
2020/12/09 21:42:22;;;;;;;30.10;20.00;;;23.70;49.20;;;;;;21232257;27;20023;-18
2020/12/09 21:52:23;;;;;;;28.17;19.65;;;23.60;49.10;;;;;;21279593;27;20425;-17
2020/12/09 22:02:23;;;;;;;23.00;17.98;;;23.60;49.10;;;;;;21248121;27;20026;-17
2020/12/09 22:12:24;;;;;;;22.15;15.55;;;23.60;48.90;;;;;;21251664;27;20016;-17
2020/12/09 22:22:24;;;;;;;22.50;15.43;;;23.50;49.10;;;;;;21247980;27;20742;-17
2020/12/09 22:32:25;;;;;;;22.40;16.13;;;23.70;48.70;;;;;;21250607;27;20027;-16
2020/12/09 22:42:26;;;;;;;18.33;13.88;;;23.60;48.90;;;;;;21246047;27;20038;-17
2020/12/09 22:52:26;;;;;;;20.73;14.25;;;23.60;48.40;;;;;;21247798;27;20469;-18
2020/12/09 23:02:27;;;;;;;21.45;12.73;;;23.30;48.40;;;;;;21246301;27;20087;-18
2020/12/09 23:12:27;;;;;;;23.33;13.63;;;23.00;48.80;;;;;;21241608;27;20394;-17
2020/12/09 23:22:28;;;;;;;22.48;14.32;;;22.60;49.80;;;;;;21241562;27;20023;-17
2020/12/09 23:32:28;;;;;;;20.08;13.20;;;22.30;51.00;;;;;;21240814;27;20019;-17
2020/12/09 23:42:29;;;;;;;21.83;12.57;;;21.90;52.00;;;;;;21240133;27;20035;-17
2020/12/09 23:52:29;;;;;;;19.80;11.98;;;21.70;52.20;;;;;;21223929;27;20038;-16
